sensor_id;sensor_type;location;lat;lon;timestamp;pressure;altitude;pressure_sealevel;temperature;humidity
45467;BME280;31212;49.734;8.490;2022-08-19T00:01:55;100109.13;;;19.95;80.54
45467;BME280;31212;49.734;8.490;2022-08-19T00:04:24;100116.06;;;19.98;81.08
45467;BME280;31212;49.734;8.490;2022-08-19T00:06:50;100108.16;;;19.98;80.34
45467;BME280;31212;49.734;8.490;2022-08-19T00:09:19;100109.91;;;19.97;80.89
45467;BME280;31212;49.734;8.490;2022-08-19T00:11:46;100116.91;;;19.98;80.88
45467;BME280;31212;49.734;8.490;2022-08-19T00:14:15;100120.28;;;20.02;81.14
45467;BME280;31212;49.734;8.490;2022-08-19T00:16:44;100116.84;;;20.00;81.10
45467;BME280;31212;49.734;8.490;2022-08-19T00:19:12;100109.69;;;20.04;80.93
45467;BME280;31212;49.734;8.490;2022-08-19T00:21:39;100098.34;;;20.02;80.78
45467;BME280;31212;49.734;8.490;2022-08-19T00:24:07;100077.75;;;20.11;79.85
45467;BME280;31212;49.734;8.490;2022-08-19T00:26:34;100060.13;;;20.12;79.68
45467;BME280;31212;49.734;8.490;2022-08-19T00:29:01;100066.59;;;20.05;79.83
45467;BME280;31212;49.734;8.490;2022-08-19T00:31:28;100070.00;;;20.07;79.82
45467;BME280;31212;49.734;8.490;2022-08-19T00:33:56;100072.00;;;20.02;80.48
45467;BME280;31212;49.734;8.490;2022-08-19T00:36:24;100067.75;;;19.97;80.16
45467;BME280;31212;49.734;8.490;2022-08-19T00:38:51;100068.63;;;19.98;80.38
45467;BME280;31212;49.734;8.490;2022-08-19T00:41:20;100067.03;;;19.94;80.75
45467;BME280;31212;49.734;8.490;2022-08-19T00:43:58;100065.53;;;19.88;80.93
45467;BME280;31212;49.734;8.490;2022-08-19T00:46:25;100066.09;;;19.73;81.43
45467;BME280;31212;49.734;8.490;2022-08-19T00:48:51;100065.63;;;19.63;81.99
45467;BME280;31212;49.734;8.490;2022-08-19T00:51:18;100068.31;;;19.61;82.05
45467;BME280;31212;49.734;8.490;2022-08-19T00:53:46;100052.88;;;19.52;82.41
45467;BME280;31212;49.734;8.490;2022-08-19T00:56:12;100057.97;;;19.57;82.39
45467;BME280;31212;49.734;8.490;2022-08-19T00:58:40;100056.69;;;19.45;82.39
45467;BME280;31212;49.734;8.490;2022-08-19T01:01:07;100069.25;;;19.38;82.81
45467;BME280;31212;49.734;8.490;2022-08-19T01:03:34;100060.09;;;19.47;82.45
45467;BME280;31212;49.734;8.490;2022-08-19T01:06:00;100051.59;;;19.40;82.13
45467;BME280;31212;49.734;8.490;2022-08-19T01:08:27;100050.84;;;19.37;82.15
45467;BME280;31212;49.734;8.490;2022-08-19T01:10:58;100048.13;;;19.40;81.96
45467;BME280;31212;49.734;8.490;2022-08-19T01:13:27;100036.59;;;19.42;81.58
45467;BME280;31212;49.734;8.490;2022-08-19T01:15:57;100044.59;;;19.39;81.59
45467;BME280;31212;49.734;8.490;2022-08-19T01:18:26;100038.13;;;19.48;81.21
45467;BME280;31212;49.734;8.490;2022-08-19T01:20:55;100035.44;;;19.49;80.68
45467;BME280;31212;49.734;8.490;2022-08-19T01:23:24;100024.06;;;19.49;80.11
45467;BME280;31212;49.734;8.490;2022-08-19T01:26:09;100024.06;;;19.49;79.78
45467;BME280;31212;49.734;8.490;2022-08-19T01:28:36;100027.34;;;19.54;79.67
45467;BME280;31212;49.734;8.490;2022-08-19T01:31:04;100022.13;;;19.53;79.62
45467;BME280;31212;49.734;8.490;2022-08-19T01:33:30;100028.16;;;19.56;79.38
45467;BME280;31212;49.734;8.490;2022-08-19T01:36:04;100020.78;;;19.64;79.12
45467;BME280;31212;49.734;8.490;2022-08-19T01:38:35;100008.91;;;19.76;78.42
45467;BME280;31212;49.734;8.490;2022-08-19T01:41:02;99996.03;;;19.69;77.91
45467;BME280;31212;49.734;8.490;2022-08-19T01:43:29;100012.81;;;19.66;78.27
45467;BME280;31212;49.734;8.490;2022-08-19T01:45:55;100007.38;;;19.71;78.36
45467;BME280;31212;49.734;8.490;2022-08-19T01:48:22;100009.75;;;19.77;78.06
45467;BME280;31212;49.734;8.490;2022-08-19T01:50:49;100000.13;;;19.76;78.00
45467;BME280;31212;49.734;8.490;2022-08-19T01:53:16;100002.91;;;19.73;77.87
45467;BME280;31212;49.734;8.490;2022-08-19T01:55:44;100003.56;;;19.78;77.80
45467;BME280;31212;49.734;8.490;2022-08-19T01:58:13;100005.59;;;19.71;77.89
45467;BME280;31212;49.734;8.490;2022-08-19T02:00:41;100007.50;;;19.67;78.14
45467;BME280;31212;49.734;8.490;2022-08-19T02:03:09;100023.22;;;19.69;78.37
45467;BME280;31212;49.734;8.490;2022-08-19T02:05:36;100013.69;;;19.66;78.40
45467;BME280;31212;49.734;8.490;2022-08-19T02:08:03;100028.75;;;19.63;78.58
45467;BME280;31212;49.734;8.490;2022-08-19T02:10:31;100024.22;;;19.66;78.55
45467;BME280;31212;49.734;8.490;2022-08-19T02:12:59;100028.81;;;19.61;78.59
45467;BME280;31212;49.734;8.490;2022-08-19T02:15:25;100043.03;;;19.57;79.08
45467;BME280;31212;49.734;8.490;2022-08-19T02:17:51;100050.75;;;19.62;78.99
45467;BME280;31212;49.734;8.490;2022-08-19T02:20:18;100047.25;;;19.61;78.90
45467;BME280;31212;49.734;8.490;2022-08-19T02:22:45;100053.44;;;19.60;79.43
45467;BME280;31212;49.734;8.490;2022-08-19T02:25:12;100072.00;;;19.57;79.79
45467;BME280;31212;49.734;8.490;2022-08-19T02:27:40;100051.84;;;19.56;79.71
45467;BME280;31212;49.734;8.490;2022-08-19T02:30:13;100063.28;;;19.55;79.95
45467;BME280;31212;49.734;8.490;2022-08-19T02:32:41;100056.25;;;19.56;79.66
45467;BME280;31212;49.734;8.490;2022-08-19T02:35:08;100059.75;;;19.56;79.85
45467;BME280;31212;49.734;8.490;2022-08-19T02:37:35;100050.19;;;19.54;79.75
45467;BME280;31212;49.734;8.490;2022-08-19T02:40:19;100050.38;;;19.49;79.81
45467;BME280;31212;49.734;8.490;2022-08-19T02:42:46;100064.53;;;19.46;80.14
45467;BME280;31212;49.734;8.490;2022-08-19T02:45:14;100079.63;;;19.41;80.83
45467;BME280;31212;49.734;8.490;2022-08-19T02:47:40;100087.75;;;19.35;81.30
45467;BME280;31212;49.734;8.490;2022-08-19T02:50:08;100097.50;;;19.33;81.28
45467;BME280;31212;49.734;8.490;2022-08-19T05:01:11;100034.69;;;19.68;78.21
45467;BME280;31212;49.734;8.490;2022-08-19T05:03:38;100019.69;;;19.92;77.02
45467;BME280;31212;49.734;8.490;2022-08-19T05:06:06;100011.66;;;19.95;76.25
45467;BME280;31212;49.734;8.490;2022-08-19T05:08:35;100005.47;;;19.96;75.90
45467;BME280;31212;49.734;8.490;2022-08-19T05:11:11;100019.09;;;20.06;75.72
45467;BME280;31212;49.734;8.490;2022-08-19T05:13:38;100010.13;;;20.10;75.53
45467;BME280;31212;49.734;8.490;2022-08-19T05:16:05;100006.38;;;20.16;75.46
45467;BME280;31212;49.734;8.490;2022-08-19T05:18:33;100018.09;;;20.29;75.37
45467;BME280;31212;49.734;8.490;2022-08-19T05:21:19;100018.16;;;20.28;75.30
45467;BME280;31212;49.734;8.490;2022-08-19T05:24:04;100007.56;;;20.29;75.26
45467;BME280;31212;49.734;8.490;2022-08-19T05:26:34;99989.31;;;20.25;74.61
45467;BME280;31212;49.734;8.490;2022-08-19T05:29:00;99995.19;;;20.31;74.40
45467;BME280;31212;49.734;8.490;2022-08-19T05:31:27;99991.56;;;20.34;74.06
45467;BME280;31212;49.734;8.490;2022-08-19T05:33:55;99986.78;;;20.42;73.66
45467;BME280;31212;49.734;8.490;2022-08-19T05:36:23;99987.78;;;20.40;73.55
45467;BME280;31212;49.734;8.490;2022-08-19T05:38:50;99990.59;;;20.35;73.38
45467;BME280;31212;49.734;8.490;2022-08-19T05:41:18;99995.13;;;20.52;73.54
45467;BME280;31212;49.734;8.490;2022-08-19T05:43:45;99989.31;;;20.64;73.21
45467;BME280;31212;49.734;8.490;2022-08-19T05:46:17;99988.47;;;20.64;72.92
45467;BME280;31212;49.734;8.490;2022-08-19T05:48:44;99978.09;;;20.80;72.42
45467;BME280;31212;49.734;8.490;2022-08-19T05:51:12;99980.38;;;20.88;71.88
45467;BME280;31212;49.734;8.490;2022-08-19T05:53:39;99964.25;;;20.94;71.67
45467;BME280;31212;49.734;8.490;2022-08-19T05:56:06;99978.09;;;20.99;71.85
45467;BME280;31212;49.734;8.490;2022-08-19T05:58:33;99967.94;;;21.09;71.10
45467;BME280;31212;49.734;8.490;2022-08-19T06:01:00;99953.44;;;21.17;70.86
45467;BME280;31212;49.734;8.490;2022-08-19T06:03:29;99972.28;;;21.29;70.89
45467;BME280;31212;49.734;8.490;2022-08-19T06:05:56;99964.84;;;21.37;70.26
45467;BME280;31212;49.734;8.490;2022-08-19T06:08:25;99969.81;;;21.43;70.01
45467;BME280;31212;49.734;8.490;2022-08-19T06:10:52;99966.59;;;21.56;69.78
45467;BME280;31212;49.734;8.490;2022-08-19T06:13:19;99967.53;;;21.72;69.41
45467;BME280;31212;49.734;8.490;2022-08-19T06:15:46;99955.88;;;21.94;68.46
45467;BME280;31212;49.734;8.490;2022-08-19T06:18:13;99937.25;;;22.13;67.90
45467;BME280;31212;49.734;8.490;2022-08-19T06:20:40;99921.19;;;22.33;67.40
45467;BME280;31212;49.734;8.490;2022-08-19T06:23:07;99916.41;;;22.24;67.01
45467;BME280;31212;49.734;8.490;2022-08-19T06:25:36;99933.97;;;22.59;66.91
45467;BME280;31212;49.734;8.490;2022-08-19T06:28:02;99916.06;;;22.80;66.24
45467;BME280;31212;49.734;8.490;2022-08-19T06:30:29;99919.22;;;23.02;65.86
45467;BME280;31212;49.734;8.490;2022-08-19T06:32:55;99897.50;;;23.12;65.40
45467;BME280;31212;49.734;8.490;2022-08-19T06:35:22;99877.75;;;23.33;64.63
45467;BME280;31212;49.734;8.490;2022-08-19T06:37:48;99855.75;;;23.47;64.01
45467;BME280;31212;49.734;8.490;2022-08-19T06:40:15;99836.56;;;23.87;63.01
45467;BME280;31212;49.734;8.490;2022-08-19T06:42:43;99794.84;;;24.47;61.60
45467;BME280;31212;49.734;8.490;2022-08-19T06:45:09;99794.22;;;24.71;60.73
45467;BME280;31212;49.734;8.490;2022-08-19T06:47:36;99780.94;;;25.11;59.85
45467;BME280;31212;49.734;8.490;2022-08-19T06:50:03;99733.66;;;25.29;58.20
45467;BME280;31212;49.734;8.490;2022-08-19T06:52:30;99729.66;;;25.49;57.96
45467;BME280;31212;49.734;8.490;2022-08-19T06:54:58;99723.03;;;25.67;56.99
45467;BME280;31212;49.734;8.490;2022-08-19T06:57:25;99721.50;;;25.39;56.91
45467;BME280;31212;49.734;8.490;2022-08-19T06:59:53;99767.00;;;25.07;58.23
45467;BME280;31212;49.734;8.490;2022-08-19T07:02:21;99795.34;;;24.81;59.28
45467;BME280;31212;49.734;8.490;2022-08-19T07:04:51;99815.06;;;24.77;59.46
45467;BME280;31212;49.734;8.490;2022-08-19T07:07:19;99817.91;;;25.01;58.96
45467;BME280;31212;49.734;8.490;2022-08-19T07:09:49;99823.22;;;25.54;58.43
45467;BME280;31212;49.734;8.490;2022-08-19T07:12:15;99755.25;;;25.76;56.99
45467;BME280;31212;49.734;8.490;2022-08-19T07:14:42;99714.09;;;26.18;55.61
45467;BME280;31212;49.734;8.490;2022-08-19T07:17:12;99712.84;;;26.35;55.46
45467;BME280;31212;49.734;8.490;2022-08-19T07:19:40;99720.31;;;25.93;55.76
45467;BME280;31212;49.734;8.490;2022-08-19T07:22:09;99744.72;;;25.61;56.17
45467;BME280;31212;49.734;8.490;2022-08-19T07:24:37;99768.84;;;25.32;56.92
45467;BME280;31212;49.734;8.490;2022-08-19T07:27:06;99763.84;;;25.15;57.17
45467;BME280;31212;49.734;8.490;2022-08-19T07:29:35;99757.38;;;25.83;56.40
45467;BME280;31212;49.734;8.490;2022-08-19T07:32:04;99723.47;;;26.11;55.04
45467;BME280;31212;49.734;8.490;2022-08-19T07:34:33;99720.09;;;26.33;54.76
45467;BME280;31212;49.734;8.490;2022-08-19T07:37:03;99661.00;;;26.77;53.08
45467;BME280;31212;49.734;8.490;2022-08-19T07:39:32;99654.09;;;26.74;52.98
45467;BME280;31212;49.734;8.490;2022-08-19T07:42:00;99636.66;;;26.81;52.55
45467;BME280;31212;49.734;8.490;2022-08-19T07:44:27;99615.88;;;27.20;51.70
45467;BME280;31212;49.734;8.490;2022-08-19T07:46:56;99634.41;;;27.56;51.43
45467;BME280;31212;49.734;8.490;2022-08-19T07:49:24;99581.16;;;28.10;49.89
45467;BME280;31212;49.734;8.490;2022-08-19T07:51:54;99550.50;;;27.72;49.62
45467;BME280;31212;49.734;8.490;2022-08-19T07:54:24;99560.47;;;28.23;48.95
45467;BME280;31212;49.734;8.490;2022-08-19T07:56:50;99522.66;;;28.91;47.71
45467;BME280;31212;49.734;8.490;2022-08-19T07:59:18;99492.97;;;29.55;46.01
45467;BME280;31212;49.734;8.490;2022-08-19T08:01:46;99507.59;;;30.19;45.80
45467;BME280;31212;49.734;8.490;2022-08-19T08:04:13;99474.25;;;30.51;44.43
45467;BME280;31212;49.734;8.490;2022-08-19T08:06:59;99415.13;;;29.87;44.35
45467;BME280;31212;49.734;8.490;2022-08-19T08:09:43;99472.13;;;29.97;45.05
45467;BME280;31212;49.734;8.490;2022-08-19T08:12:12;99439.69;;;31.49;42.45
45467;BME280;31212;49.734;8.490;2022-08-19T08:14:42;99399.94;;;31.27;42.18
45467;BME280;31212;49.734;8.490;2022-08-19T08:19:41;99359.34;;;31.66;40.86
45467;BME280;31212;49.734;8.490;2022-08-19T08:22:10;99418.66;;;30.25;42.99
45467;BME280;31212;49.734;8.490;2022-08-19T08:25:00;99504.00;;;28.49;46.52
45467;BME280;31212;49.734;8.490;2022-08-19T08:27:27;99559.59;;;27.69;48.02
45467;BME280;31212;49.734;8.490;2022-08-19T08:29:56;99604.34;;;28.09;48.46
45467;BME280;31212;49.734;8.490;2022-08-19T08:32:23;99567.47;;;28.88;47.16
45467;BME280;31212;49.734;8.490;2022-08-19T08:34:49;99544.47;;;29.37;45.91
45467;BME280;31212;49.734;8.490;2022-08-19T08:37:17;99510.78;;;30.32;44.61
45467;BME280;31212;49.734;8.490;2022-08-19T08:39:44;99441.44;;;31.23;41.94
45467;BME280;31212;49.734;8.490;2022-08-19T08:42:15;99443.13;;;31.42;41.83
45467;BME280;31212;49.734;8.490;2022-08-19T08:44:50;99379.94;;;31.83;40.76
45467;BME280;31212;49.734;8.490;2022-08-19T08:47:21;99343.78;;;32.73;39.26
45467;BME280;31212;49.734;8.490;2022-08-19T08:49:52;99297.53;;;32.61;38.42
45467;BME280;31212;49.734;8.490;2022-08-19T08:52:25;99315.97;;;30.90;40.30
45467;BME280;31212;49.734;8.490;2022-08-19T08:54:55;99360.25;;;29.34;42.17
45467;BME280;31212;49.734;8.490;2022-08-19T08:57:26;99440.47;;;28.43;44.59
45467;BME280;31212;49.734;8.490;2022-08-19T08:59:54;99448.00;;;28.07;44.91
45467;BME280;31212;49.734;8.490;2022-08-19T09:02:23;99463.41;;;27.82;45.24
45467;BME280;31212;49.734;8.490;2022-08-19T09:04:50;99467.53;;;27.86;45.48
45467;BME280;31212;49.734;8.490;2022-08-19T09:10:15;99598.56;;;27.38;48.36
45467;BME280;31212;49.734;8.490;2022-08-19T09:12:53;99649.53;;;26.88;49.91
45467;BME280;31212;49.734;8.490;2022-08-19T09:15:28;99702.16;;;26.48;51.32
45467;BME280;31212;49.734;8.490;2022-08-19T09:17:59;99718.16;;;26.35;51.70
45467;BME280;31212;49.734;8.490;2022-08-19T09:20:27;99732.03;;;26.04;52.49
45467;BME280;31212;49.734;8.490;2022-08-19T09:22:55;99771.81;;;25.92;53.47
45467;BME280;31212;49.734;8.490;2022-08-19T09:25:22;99760.63;;;25.87;53.30
45467;BME280;31212;49.734;8.490;2022-08-19T09:27:50;99758.28;;;26.08;52.97
45467;BME280;31212;49.734;8.490;2022-08-19T09:30:20;99744.66;;;26.37;52.40
45467;BME280;31212;49.734;8.490;2022-08-19T09:32:47;99670.50;;;26.68;50.24
45467;BME280;31212;49.734;8.490;2022-08-19T09:35:14;99654.50;;;26.57;50.59
45467;BME280;31212;49.734;8.490;2022-08-19T09:37:41;99657.41;;;27.23;49.79
45467;BME280;31212;49.734;8.490;2022-08-19T09:40:11;99637.56;;;27.94;48.39
45467;BME280;31212;49.734;8.490;2022-08-19T09:42:38;99590.66;;;29.18;46.21
45467;BME280;31212;49.734;8.490;2022-08-19T09:45:05;99522.69;;;29.61;44.48
45467;BME280;31212;49.734;8.490;2022-08-19T09:47:32;99482.81;;;29.68;43.74
45467;BME280;31212;49.734;8.490;2022-08-19T09:50:01;99443.53;;;29.98;43.09
45467;BME280;31212;49.734;8.490;2022-08-19T09:52:27;99453.72;;;31.25;41.90
45467;BME280;31212;49.734;8.490;2022-08-19T09:54:54;99409.06;;;32.31;39.88
45467;BME280;31212;49.734;8.490;2022-08-19T09:57:22;99308.69;;;33.49;37.65
45467;BME280;31212;49.734;8.490;2022-08-19T09:59:48;99274.06;;;33.04;37.43
45467;BME280;31212;49.734;8.490;2022-08-19T10:02:15;99283.44;;;32.76;37.80
45467;BME280;31212;49.734;8.490;2022-08-19T10:04:41;99344.13;;;31.48;39.83
45467;BME280;31212;49.734;8.490;2022-08-19T10:07:25;99387.50;;;31.62;39.99
45467;BME280;31212;49.734;8.490;2022-08-19T10:09:52;99332.81;;;32.15;38.79
45467;BME280;31212;49.734;8.490;2022-08-19T10:12:18;99343.06;;;31.41;39.71
45467;BME280;31212;49.734;8.490;2022-08-19T10:14:46;99369.50;;;30.54;40.92
45467;BME280;31212;49.734;8.490;2022-08-19T10:17:13;99391.19;;;31.87;40.15
45467;BME280;31212;49.734;8.490;2022-08-19T10:19:39;99288.34;;;33.13;36.86
45467;BME280;31212;49.734;8.490;2022-08-19T10:22:06;99196.31;;;33.99;34.26
45467;BME280;31212;49.734;8.490;2022-08-19T10:24:33;99236.78;;;33.74;35.04
45467;BME280;31212;49.734;8.490;2022-08-19T10:27:00;99265.63;;;33.49;35.96
45467;BME280;31212;49.734;8.490;2022-08-19T10:29:29;99284.34;;;31.91;37.46
45467;BME280;31212;49.734;8.490;2022-08-19T10:31:58;99325.13;;;31.60;38.39
45467;BME280;31212;49.734;8.490;2022-08-19T10:34:25;99348.03;;;32.49;37.78
45467;BME280;31212;49.734;8.490;2022-08-19T10:36:52;99273.22;;;32.96;36.25
45467;BME280;31212;49.734;8.490;2022-08-19T10:39:18;99303.25;;;32.66;36.42
45467;BME280;31212;49.734;8.490;2022-08-19T10:41:45;99303.78;;;32.86;36.55
45467;BME280;31212;49.734;8.490;2022-08-19T10:44:12;99257.81;;;33.87;34.99
45467;BME280;31212;49.734;8.490;2022-08-19T10:46:42;99218.09;;;35.28;32.99
45467;BME280;31212;49.734;8.490;2022-08-19T10:49:13;99189.97;;;35.23;33.19
45467;BME280;31212;49.734;8.490;2022-08-19T10:51:41;99168.75;;;35.19;32.50
45467;BME280;31212;49.734;8.490;2022-08-19T10:54:26;99141.81;;;34.81;32.08
45467;BME280;31212;49.734;8.490;2022-08-19T10:57:13;99169.06;;;34.48;33.22
45467;BME280;31212;49.734;8.490;2022-08-19T10:59:39;99160.56;;;34.98;32.46
45467;BME280;31212;49.734;8.490;2022-08-19T11:02:08;99176.38;;;35.31;32.55
45467;BME280;31212;49.734;8.490;2022-08-19T11:04:37;99135.66;;;35.11;31.99
45467;BME280;31212;49.734;8.490;2022-08-19T11:07:05;99144.16;;;34.46;32.64
45467;BME280;31212;49.734;8.490;2022-08-19T11:09:37;99182.34;;;35.26;32.54
45467;BME280;31212;49.734;8.490;2022-08-19T11:12:04;99119.09;;;35.80;31.21
45467;BME280;31212;49.734;8.490;2022-08-19T11:14:31;99101.50;;;35.48;31.46
45467;BME280;31212;49.734;8.490;2022-08-19T11:16:59;99110.50;;;35.25;31.34
45467;BME280;31212;49.734;8.490;2022-08-19T11:19:25;99135.41;;;35.72;31.42
45467;BME280;31212;49.734;8.490;2022-08-19T11:21:54;99132.09;;;35.55;31.47
45467;BME280;31212;49.734;8.490;2022-08-19T11:24:22;99093.72;;;34.93;31.53
45467;BME280;31212;49.734;8.490;2022-08-19T11:26:52;99130.84;;;33.98;32.94
45467;BME280;31212;49.734;8.490;2022-08-19T11:29:22;99049.56;;;34.41;31.45
45467;BME280;31212;49.734;8.490;2022-08-19T11:31:51;99004.97;;;34.39;30.32
45467;BME280;31212;49.734;8.490;2022-08-19T11:34:20;99049.16;;;33.60;31.85
45467;BME280;31212;49.734;8.490;2022-08-19T11:36:47;99119.13;;;33.91;32.66
45467;BME280;31212;49.734;8.490;2022-08-19T11:39:18;99115.44;;;33.52;32.63
45467;BME280;31212;49.734;8.490;2022-08-19T11:41:45;99067.22;;;33.03;32.67
45467;BME280;31212;49.734;8.490;2022-08-19T11:44:12;99115.16;;;33.39;32.91
45467;BME280;31212;49.734;8.490;2022-08-19T11:46:40;99131.94;;;33.49;32.87
45467;BME280;31212;49.734;8.490;2022-08-19T11:49:10;99068.91;;;33.44;32.06
45467;BME280;31212;49.734;8.490;2022-08-19T11:51:37;99097.19;;;33.40;32.51
45467;BME280;31212;49.734;8.490;2022-08-19T11:54:05;99052.78;;;33.67;31.70
45467;BME280;31212;49.734;8.490;2022-08-19T11:56:33;99045.94;;;33.33;31.86
45467;BME280;31212;49.734;8.490;2022-08-19T11:59:00;99099.50;;;32.70;33.46
45467;BME280;31212;49.734;8.490;2022-08-19T12:01:27;99105.63;;;33.20;32.74
45467;BME280;31212;49.734;8.490;2022-08-19T12:03:55;99095.72;;;33.20;32.72
45467;BME280;31212;49.734;8.490;2022-08-19T12:06:24;99100.78;;;33.55;32.66
45467;BME280;31212;49.734;8.490;2022-08-19T12:08:54;99146.53;;;33.55;33.19
45467;BME280;31212;49.734;8.490;2022-08-19T12:11:21;99122.81;;;33.59;32.61
45467;BME280;31212;49.734;8.490;2022-08-19T12:13:49;99098.91;;;33.95;31.94
45467;BME280;31212;49.734;8.490;2022-08-19T12:16:18;99137.59;;;34.17;32.35
45467;BME280;31212;49.734;8.490;2022-08-19T12:18:45;99054.66;;;34.13;31.25
45467;BME280;31212;49.734;8.490;2022-08-19T12:21:12;99064.97;;;32.50;32.93
45467;BME280;31212;49.734;8.490;2022-08-19T12:23:39;99114.66;;;32.54;33.55
45467;BME280;31212;49.734;8.490;2022-08-19T12:26:06;99172.41;;;32.50;34.53
45467;BME280;31212;49.734;8.490;2022-08-19T12:28:32;99118.78;;;31.83;34.28
45467;BME280;31212;49.734;8.490;2022-08-19T12:31:00;99127.81;;;31.74;34.54
45467;BME280;31212;49.734;8.490;2022-08-19T12:33:27;99086.94;;;32.04;33.54
45467;BME280;31212;49.734;8.490;2022-08-19T12:35:54;99165.69;;;32.96;33.62
45467;BME280;31212;49.734;8.490;2022-08-19T12:38:21;99137.84;;;33.84;32.37
45467;BME280;31212;49.734;8.490;2022-08-19T12:40:49;99082.28;;;34.15;30.95
45467;BME280;31212;49.734;8.490;2022-08-19T12:43:17;99051.50;;;34.09;30.68
45467;BME280;31212;49.734;8.490;2022-08-19T12:45:45;99044.59;;;34.30;30.30
45467;BME280;31212;49.734;8.490;2022-08-19T12:48:13;99055.84;;;34.33;30.82
45467;BME280;31212;49.734;8.490;2022-08-19T12:50:40;99085.28;;;34.73;30.99
45467;BME280;31212;49.734;8.490;2022-08-19T12:53:07;99045.78;;;34.80;30.64
45467;BME280;31212;49.734;8.490;2022-08-19T12:55:34;99027.75;;;34.28;30.50
45467;BME280;31212;49.734;8.490;2022-08-19T12:58:00;99026.19;;;33.49;31.34
45467;BME280;31212;49.734;8.490;2022-08-19T13:00:28;99009.50;;;32.66;31.75
45467;BME280;31212;49.734;8.490;2022-08-19T13:02:56;99040.13;;;32.07;32.63
45467;BME280;31212;49.734;8.490;2022-08-19T13:05:26;99084.06;;;31.90;33.03
45467;BME280;31212;49.734;8.490;2022-08-19T13:07:54;99021.84;;;32.27;31.94
45467;BME280;31212;49.734;8.490;2022-08-19T13:10:23;99049.00;;;32.74;31.76
45467;BME280;31212;49.734;8.490;2022-08-19T13:12:51;99032.50;;;32.68;31.68
45467;BME280;31212;49.734;8.490;2022-08-19T13:15:19;99047.44;;;32.87;30.75
45467;BME280;31212;49.734;8.490;2022-08-19T13:17:47;99080.22;;;33.31;30.89
45467;BME280;31212;49.734;8.490;2022-08-19T13:20:15;99086.94;;;33.66;30.31
45467;BME280;31212;49.734;8.490;2022-08-19T13:22:43;99030.94;;;32.99;30.48
45467;BME280;31212;49.734;8.490;2022-08-19T13:25:10;99084.31;;;33.10;31.12
45467;BME280;31212;49.734;8.490;2022-08-19T13:27:38;99060.56;;;33.22;30.72
45467;BME280;31212;49.734;8.490;2022-08-19T13:30:06;99052.84;;;32.13;31.82
45467;BME280;31212;49.734;8.490;2022-08-19T13:32:50;99092.13;;;31.90;32.76
45467;BME280;31212;49.734;8.490;2022-08-19T13:35:35;99131.38;;;31.48;33.19
45467;BME280;31212;49.734;8.490;2022-08-19T13:38:03;99132.53;;;31.11;34.04
45467;BME280;31212;49.734;8.490;2022-08-19T13:40:31;99169.88;;;30.86;34.45
45467;BME280;31212;49.734;8.490;2022-08-19T13:42:59;99180.88;;;30.57;34.67
45467;BME280;31212;49.734;8.490;2022-08-19T13:45:28;99160.19;;;30.13;34.71
45467;BME280;31212;49.734;8.490;2022-08-19T13:47:56;99188.69;;;30.04;35.22
45467;BME280;31212;49.734;8.490;2022-08-19T13:50:24;99207.28;;;29.78;35.97
45467;BME280;31212;49.734;8.490;2022-08-19T13:52:52;99259.97;;;30.05;36.68
45467;BME280;31212;49.734;8.490;2022-08-19T13:55:20;99235.41;;;29.82;36.29
45467;BME280;31212;49.734;8.490;2022-08-19T13:57:49;99242.94;;;29.68;36.27
45467;BME280;31212;49.734;8.490;2022-08-19T14:00:17;99233.22;;;29.67;36.35
45467;BME280;31212;49.734;8.490;2022-08-19T14:02:46;99254.47;;;29.69;36.63
45467;BME280;31212;49.734;8.490;2022-08-19T14:05:15;99285.28;;;30.11;36.85
45467;BME280;31212;49.734;8.490;2022-08-19T14:07:42;99246.25;;;30.18;36.07
45467;BME280;31212;49.734;8.490;2022-08-19T14:10:11;99254.13;;;30.37;35.51
45467;BME280;31212;49.734;8.490;2022-08-19T14:12:39;99234.34;;;30.66;35.21
45467;BME280;31212;49.734;8.490;2022-08-19T14:15:08;99274.22;;;31.06;35.32
45467;BME280;31212;49.734;8.490;2022-08-19T14:20:40;99206.88;;;33.61;32.00
45467;BME280;31212;49.734;8.490;2022-08-19T14:23:07;99077.78;;;34.07;29.46
45467;BME280;31212;49.734;8.490;2022-08-19T14:25:33;99052.75;;;34.22;29.49
45467;BME280;31212;49.734;8.490;2022-08-19T14:28:01;99052.06;;;34.43;29.16
45467;BME280;31212;49.734;8.490;2022-08-19T14:30:30;98989.00;;;34.82;28.01
45467;BME280;31212;49.734;8.490;2022-08-19T14:32:59;98995.22;;;34.97;28.45
45467;BME280;31212;49.734;8.490;2022-08-19T14:35:27;98979.50;;;34.71;28.03
45467;BME280;31212;49.734;8.490;2022-08-19T14:37:54;98950.13;;;34.76;28.26
45467;BME280;31212;49.734;8.490;2022-08-19T14:40:23;98947.31;;;34.10;28.66
45467;BME280;31212;49.734;8.490;2022-08-19T14:42:52;98949.28;;;32.92;30.02
45467;BME280;31212;49.734;8.490;2022-08-19T14:45:22;99020.44;;;32.56;31.47
45467;BME280;31212;49.734;8.490;2022-08-19T14:47:48;98982.91;;;31.98;31.50
45467;BME280;31212;49.734;8.490;2022-08-19T14:50:15;98960.03;;;31.36;31.28
45467;BME280;31212;49.734;8.490;2022-08-19T14:52:41;99013.03;;;31.59;31.65
45467;BME280;31212;49.734;8.490;2022-08-19T14:55:09;99028.09;;;31.44;31.91
45467;BME280;31212;49.734;8.490;2022-08-19T14:57:36;98980.44;;;31.21;31.66
45467;BME280;31212;49.734;8.490;2022-08-19T15:00:04;98990.00;;;30.81;32.02
45467;BME280;31212;49.734;8.490;2022-08-19T15:02:31;99016.38;;;30.67;32.46
45467;BME280;31212;49.734;8.490;2022-08-19T15:04:58;98999.94;;;30.97;32.25
45467;BME280;31212;49.734;8.490;2022-08-19T15:07:25;99050.19;;;31.89;31.99
45467;BME280;31212;49.734;8.490;2022-08-19T15:09:51;98944.63;;;32.13;30.14
45467;BME280;31212;49.734;8.490;2022-08-19T15:12:18;98946.63;;;32.44;29.75
45467;BME280;31212;49.734;8.490;2022-08-19T15:14:44;98909.06;;;32.75;28.78
45467;BME280;31212;49.734;8.490;2022-08-19T15:17:15;98917.13;;;33.07;28.44
45467;BME280;31212;49.734;8.490;2022-08-19T15:19:43;98929.28;;;33.26;28.49
45467;BME280;31212;49.734;8.490;2022-08-19T15:22:10;98952.09;;;33.61;28.17